createdAt,value
2023-06-17T00:00:13.580Z,3.47
2023-06-17T00:02:40.173Z,3.67
2023-06-17T00:05:06.990Z,3.97
2023-06-17T00:07:33.475Z,4.07
2023-06-17T00:09:59.979Z,3.47
2023-06-17T00:12:30.665Z,4.13
2023-06-17T00:14:58.278Z,4.00
2023-06-17T00:17:24.845Z,4.30
2023-06-17T00:19:51.272Z,4.03
2023-06-17T00:22:19.802Z,4.00
2023-06-17T00:24:46.263Z,3.90
2023-06-17T00:27:12.743Z,4.20
2023-06-17T00:29:39.302Z,4.40
2023-06-17T00:32:06.228Z,3.95
2023-06-17T00:34:32.686Z,4.35
2023-06-17T00:36:59.656Z,3.90
2023-06-17T00:39:26.971Z,4.13
2023-06-17T00:41:53.414Z,4.43
2023-06-17T00:44:19.996Z,4.10
2023-06-17T00:46:51.475Z,3.83
2023-06-17T00:49:18.925Z,4.20
2023-06-17T00:51:53.426Z,4.40
2023-06-17T00:54:28.736Z,4.45
2023-06-17T00:56:56.028Z,4.00
2023-06-17T00:59:22.552Z,4.18
2023-06-17T01:01:49.311Z,4.50
2023-06-17T01:04:16.410Z,4.27
2023-06-17T01:06:51.750Z,4.57
2023-06-17T01:09:23.407Z,4.15
2023-06-17T01:11:55.276Z,4.72
2023-06-17T01:14:22.279Z,4.88
2023-06-17T01:16:52.231Z,4.47
2023-06-17T01:19:22.046Z,4.68
2023-06-17T01:21:55.171Z,4.38
2023-06-17T01:24:29.735Z,4.40
2023-06-17T01:27:01.106Z,4.32
2023-06-17T01:29:30.444Z,4.23
2023-06-17T01:31:58.973Z,4.38
2023-06-17T01:34:37.615Z,4.93
2023-06-17T01:37:08.800Z,4.65
2023-06-17T01:39:37.335Z,4.07
2023-06-17T01:42:11.028Z,4.63
2023-06-17T01:44:39.756Z,4.32
2023-06-17T01:47:10.465Z,4.43
2023-06-17T01:49:38.776Z,4.40
2023-06-17T01:52:06.097Z,4.28
2023-06-17T01:54:32.729Z,4.57
2023-06-17T01:56:59.463Z,4.45
2023-06-17T01:59:26.031Z,4.20
2023-06-17T02:01:52.507Z,4.32
2023-06-17T02:04:19.294Z,4.28
2023-06-17T02:06:45.804Z,4.50
2023-06-17T02:09:14.284Z,4.60
2023-06-17T02:11:40.791Z,3.97
2023-06-17T02:14:07.741Z,4.35
2023-06-17T02:16:34.717Z,4.75
2023-06-17T02:19:03.382Z,4.50
2023-06-17T02:21:29.893Z,4.85
2023-06-17T02:23:56.446Z,4.63
2023-06-17T02:26:22.958Z,4.57
2023-06-17T02:28:49.758Z,4.10
2023-06-17T02:31:16.394Z,4.93
2023-06-17T02:33:42.902Z,4.38
2023-06-17T02:36:09.380Z,5.28
2023-06-17T02:38:37.110Z,4.88
2023-06-17T02:41:03.643Z,4.80
2023-06-17T02:43:30.410Z,4.50
2023-06-17T02:45:56.903Z,4.45
2023-06-17T02:48:23.367Z,4.65
2023-06-17T02:50:50.030Z,4.68
2023-06-17T02:53:17.337Z,4.60
2023-06-17T02:55:46.679Z,4.83
2023-06-17T02:58:16.763Z,4.60
2023-06-17T03:00:46.539Z,4.85
2023-06-17T03:03:14.136Z,4.97
2023-06-17T03:05:42.567Z,4.43
2023-06-17T03:08:09.562Z,4.37
2023-06-17T03:10:36.067Z,4.65
2023-06-17T03:13:02.786Z,4.50
2023-06-17T03:15:29.222Z,5.00
2023-06-17T03:17:56.249Z,5.03
2023-06-17T03:20:29.382Z,5.10
2023-06-17T03:22:56.864Z,4.40
2023-06-17T03:25:24.336Z,4.63
2023-06-17T03:27:51.857Z,5.13
2023-06-17T03:30:18.575Z,5.10
2023-06-17T03:32:45.995Z,4.70
2023-06-17T03:35:12.793Z,5.30
2023-06-17T03:37:39.284Z,5.00
2023-06-17T03:40:06.993Z,4.60
2023-06-17T03:42:33.546Z,4.72
2023-06-17T03:45:00.059Z,5.20
2023-06-17T03:47:26.834Z,4.78
2023-06-17T03:49:54.085Z,5.13
2023-06-17T03:52:20.720Z,4.80
2023-06-17T03:54:47.397Z,5.22
2023-06-17T03:57:14.082Z,4.90
2023-06-17T03:59:40.628Z,6.07
2023-06-17T04:02:07.272Z,6.43
2023-06-17T04:04:36.078Z,5.55
2023-06-17T04:07:03.800Z,5.43
2023-06-17T04:09:30.361Z,5.93
2023-06-17T04:11:58.417Z,5.50
2023-06-17T04:14:24.849Z,5.60
2023-06-17T04:16:51.339Z,5.57
2023-06-17T04:19:18.646Z,5.55
2023-06-17T04:21:46.620Z,5.27
2023-06-17T04:24:13.172Z,5.85
2023-06-17T04:26:39.734Z,6.30
2023-06-17T04:29:06.565Z,6.00
2023-06-17T04:31:36.600Z,5.57
2023-06-17T04:34:03.744Z,5.70
2023-06-17T04:36:30.563Z,6.63
2023-06-17T04:38:57.078Z,5.97
2023-06-17T04:41:25.158Z,5.95
2023-06-17T04:43:52.519Z,5.85
2023-06-17T04:46:19.442Z,6.47
2023-06-17T04:48:46.585Z,6.47
2023-06-17T04:51:14.032Z,6.72
2023-06-17T04:53:40.718Z,6.38
2023-06-17T04:56:10.000Z,6.47
2023-06-17T04:58:36.517Z,6.57
2023-06-17T05:01:03.230Z,6.55
2023-06-17T05:03:30.874Z,6.70
2023-06-17T05:05:57.630Z,6.18
2023-06-17T05:08:24.192Z,6.53
2023-06-17T05:10:51.058Z,7.30
2023-06-17T05:13:17.530Z,6.60
2023-06-17T05:15:44.149Z,6.97
2023-06-17T05:18:10.961Z,7.05
2023-06-17T05:20:37.651Z,7.22
2023-06-17T05:23:04.430Z,7.60
2023-06-17T05:25:31.070Z,7.47
2023-06-17T05:27:57.573Z,8.45
2023-06-17T05:30:24.202Z,7.53
2023-06-17T05:32:50.936Z,7.68
2023-06-17T05:35:17.747Z,7.37
2023-06-17T05:37:44.486Z,8.57
2023-06-17T05:40:11.422Z,8.00
2023-06-17T05:42:37.966Z,6.90
2023-06-17T05:45:04.870Z,8.25
2023-06-17T05:47:31.516Z,7.17
2023-06-17T05:49:58.135Z,7.55
2023-06-17T05:52:25.414Z,6.55
2023-06-17T05:54:52.280Z,6.40
2023-06-17T05:57:18.827Z,6.38
2023-06-17T05:59:46.205Z,5.87
2023-06-17T06:02:12.919Z,5.70
2023-06-17T06:04:39.394Z,5.30
2023-06-17T06:07:05.990Z,4.30
2023-06-17T06:09:32.632Z,5.10
2023-06-17T06:11:59.378Z,4.83
2023-06-17T06:14:26.090Z,4.72
2023-06-17T06:16:52.613Z,4.95
2023-06-17T06:19:19.290Z,4.63
2023-06-17T06:21:45.872Z,4.25
2023-06-17T06:24:12.552Z,4.27
2023-06-17T06:26:39.332Z,4.80
2023-06-17T06:29:06.288Z,4.38
2023-06-17T06:31:33.252Z,4.15
2023-06-17T06:34:00.023Z,4.30
2023-06-17T06:36:26.557Z,4.07
2023-06-17T06:38:52.990Z,3.83
2023-06-17T06:41:19.694Z,3.40
2023-06-17T06:43:47.030Z,3.85
2023-06-17T06:46:16.086Z,3.55
2023-06-17T06:48:43.193Z,3.60
2023-06-17T06:51:10.044Z,4.28
2023-06-17T06:53:36.572Z,4.55
2023-06-17T06:56:03.097Z,4.45
2023-06-17T06:58:29.605Z,3.75
2023-06-17T07:00:56.371Z,3.73
2023-06-17T07:03:22.828Z,4.03
2023-06-17T07:05:49.401Z,3.75
2023-06-17T07:08:16.040Z,3.85
2023-06-17T07:10:42.658Z,4.03
2023-06-17T07:13:09.370Z,3.67
2023-06-17T07:15:35.963Z,3.72
2023-06-17T07:18:02.594Z,3.90
2023-06-17T07:20:29.173Z,4.22
2023-06-17T07:22:55.800Z,3.67
2023-06-17T07:25:22.431Z,3.60
2023-06-17T07:27:49.030Z,3.50
2023-06-17T07:30:15.782Z,3.67
2023-06-17T07:32:42.652Z,3.42
2023-06-17T07:35:09.417Z,3.95
2023-06-17T07:37:35.886Z,3.57
2023-06-17T07:40:02.463Z,3.78
2023-06-17T07:42:29.139Z,3.28
2023-06-17T07:44:56.023Z,3.70
2023-06-17T07:47:23.151Z,3.15
2023-06-17T07:49:49.979Z,3.23
2023-06-17T07:52:16.586Z,3.33
2023-06-17T07:54:43.121Z,3.10
2023-06-17T07:57:09.759Z,2.65
2023-06-17T07:59:36.430Z,2.75
2023-06-17T08:02:03.199Z,3.00
2023-06-17T08:04:29.673Z,5.82
2023-06-17T08:06:56.806Z,2.55
2023-06-17T08:09:23.388Z,2.33
2023-06-17T08:11:52.969Z,2.50
2023-06-17T08:14:19.513Z,3.10
2023-06-17T08:16:46.857Z,3.40
2023-06-17T08:19:13.637Z,3.28
2023-06-17T08:21:43.346Z,2.65
2023-06-17T08:24:19.761Z,3.20
2023-06-17T08:26:47.040Z,3.00
2023-06-17T08:29:14.563Z,3.20
2023-06-17T08:31:45.817Z,3.67
2023-06-17T08:34:13.818Z,3.33
2023-06-17T08:36:43.760Z,3.15
2023-06-17T08:39:10.879Z,3.47
2023-06-17T08:41:42.237Z,3.20
2023-06-17T08:44:13.166Z,3.13
2023-06-17T08:46:41.046Z,3.20
2023-06-17T08:49:13.397Z,2.97
2023-06-17T08:51:41.574Z,3.47
2023-06-17T08:54:08.336Z,3.35
2023-06-17T08:56:35.585Z,3.33
2023-06-17T08:59:02.232Z,3.40
2023-06-17T09:01:28.991Z,3.17
2023-06-17T09:03:55.832Z,3.13
2023-06-17T09:06:24.501Z,3.20
2023-06-17T09:08:52.587Z,3.35
2023-06-17T09:11:23.826Z,3.38
2023-06-17T09:13:54.482Z,3.33
2023-06-17T09:16:31.709Z,3.43
2023-06-17T09:19:02.488Z,3.20
2023-06-17T09:21:29.282Z,3.08
2023-06-17T09:23:57.617Z,3.30
2023-06-17T09:26:30.658Z,3.17
2023-06-17T09:29:06.214Z,3.40
2023-06-17T09:31:34.569Z,3.00
2023-06-17T09:34:04.763Z,3.17
2023-06-17T09:36:31.470Z,3.65
2023-06-17T09:38:58.302Z,3.10
2023-06-17T09:41:25.426Z,3.30
2023-06-17T09:43:55.878Z,3.17
2023-06-17T09:46:37.540Z,3.35
2023-06-17T09:49:08.452Z,3.30
2023-06-17T09:51:39.819Z,3.60
2023-06-17T09:54:08.207Z,3.40
2023-06-17T09:56:37.194Z,3.33
2023-06-17T09:59:04.598Z,3.72
2023-06-17T10:01:31.950Z,3.80
2023-06-17T10:03:59.655Z,3.63
2023-06-17T10:06:35.433Z,3.63
2023-06-17T10:09:07.221Z,3.55
2023-06-17T10:11:36.800Z,4.00
2023-06-17T10:14:18.779Z,3.60
2023-06-17T10:16:49.443Z,3.70
2023-06-17T10:19:20.812Z,3.23
2023-06-17T10:21:50.080Z,3.85
2023-06-17T10:24:19.156Z,3.67
2023-06-17T10:26:45.794Z,3.67
2023-06-17T10:29:13.610Z,3.45
2023-06-17T10:31:44.307Z,3.40
2023-06-17T10:34:21.346Z,3.40
2023-06-17T10:36:54.588Z,3.55
2023-06-17T10:39:21.081Z,3.50
2023-06-17T10:41:52.073Z,3.33
2023-06-17T10:44:33.886Z,3.60
2023-06-17T10:47:01.119Z,3.60
2023-06-17T10:49:39.548Z,3.40
2023-06-17T10:52:06.520Z,3.67
2023-06-17T10:54:34.527Z,3.65
2023-06-17T10:57:02.590Z,3.50
2023-06-17T10:59:31.450Z,3.40
2023-06-17T11:02:02.466Z,3.70
2023-06-17T11:04:31.861Z,3.83
2023-06-17T11:06:59.392Z,3.25
2023-06-17T11:09:27.101Z,3.13
2023-06-17T11:11:58.355Z,3.92
2023-06-17T11:14:28.225Z,4.00
2023-06-17T11:16:55.243Z,3.60
2023-06-17T11:19:21.884Z,4.05
2023-06-17T11:22:04.803Z,3.70
2023-06-17T11:24:32.727Z,3.70
2023-06-17T11:26:59.803Z,3.75
2023-06-17T11:29:27.416Z,3.60
2023-06-17T11:32:01.143Z,3.90
2023-06-17T11:34:33.223Z,3.60
2023-06-17T11:37:01.748Z,3.90
2023-06-17T11:39:30.945Z,4.40
2023-06-17T11:42:03.398Z,4.00
2023-06-17T11:44:31.759Z,3.90
2023-06-17T11:47:04.464Z,3.40
2023-06-17T11:49:31.285Z,3.60
2023-06-17T11:52:03.386Z,3.83
2023-06-17T11:54:30.518Z,3.80
2023-06-17T11:56:57.809Z,3.30
2023-06-17T11:59:24.984Z,3.70
2023-06-17T12:01:53.063Z,3.70
2023-06-17T12:04:20.029Z,3.65
2023-06-17T12:06:49.436Z,3.85
2023-06-17T12:09:17.163Z,3.70
2023-06-17T12:11:44.719Z,3.63
2023-06-17T12:14:13.478Z,3.80
2023-06-17T12:16:44.695Z,3.70
2023-06-17T12:19:21.566Z,3.95
2023-06-17T12:21:48.588Z,4.10
2023-06-17T12:24:16.933Z,3.77
2023-06-17T12:26:44.284Z,4.00
2023-06-17T12:29:20.245Z,4.35
2023-06-17T12:31:52.556Z,4.13
2023-06-17T12:34:19.295Z,3.90
2023-06-17T12:36:45.946Z,3.47
2023-06-17T12:39:12.501Z,3.90
2023-06-17T12:41:40.111Z,3.95
2023-06-17T12:44:06.882Z,3.55
2023-06-17T12:46:36.598Z,4.20
2023-06-17T12:49:03.997Z,4.33
2023-06-17T12:51:30.708Z,4.03
2023-06-17T12:53:57.279Z,4.15
2023-06-17T12:56:23.980Z,3.67
2023-06-17T12:58:50.898Z,3.80
2023-06-17T13:01:18.037Z,3.70
2023-06-17T13:03:45.170Z,3.90
2023-06-17T13:06:11.721Z,4.03
2023-06-17T13:08:38.775Z,3.63
2023-06-17T13:11:05.412Z,3.65
2023-06-17T13:13:32.724Z,3.97
2023-06-17T13:15:59.608Z,3.83
2023-06-17T13:18:26.615Z,4.03
2023-06-17T13:20:53.577Z,3.53
2023-06-17T13:23:20.553Z,3.97
2023-06-17T13:25:47.238Z,3.50
2023-06-17T13:28:14.311Z,3.90
2023-06-17T13:30:41.101Z,4.03
2023-06-17T13:33:07.955Z,3.80
2023-06-17T13:35:34.706Z,3.63
2023-06-17T13:38:04.033Z,3.70
2023-06-17T13:40:32.162Z,3.85
2023-06-17T13:42:58.782Z,3.60
2023-06-17T13:45:25.556Z,4.03
2023-06-17T13:47:52.253Z,4.32
2023-06-17T13:50:19.002Z,3.60
2023-06-17T13:52:46.054Z,3.80
2023-06-17T13:55:13.736Z,3.72
2023-06-17T13:57:40.519Z,4.28
2023-06-17T14:00:08.852Z,4.30
2023-06-17T14:02:35.667Z,4.07
2023-06-17T14:05:04.469Z,4.00
2023-06-17T14:07:31.207Z,4.00
2023-06-17T14:09:57.789Z,3.85
2023-06-17T14:12:24.493Z,4.00
2023-06-17T14:14:50.998Z,3.80
2023-06-17T14:17:17.641Z,4.00
2023-06-17T14:19:44.110Z,4.00
2023-06-17T14:22:10.723Z,4.00
2023-06-17T14:24:39.266Z,3.85
2023-06-17T14:27:23.026Z,4.17
2023-06-17T14:29:49.749Z,4.05
2023-06-17T14:32:17.716Z,4.18
2023-06-17T14:34:44.271Z,3.92
2023-06-17T14:37:10.769Z,4.20
2023-06-17T14:39:37.509Z,4.13
2023-06-17T14:42:04.366Z,4.55
2023-06-17T14:44:30.852Z,4.82
2023-06-17T14:46:57.410Z,3.90
2023-06-17T14:49:24.034Z,4.60
2023-06-17T14:51:52.647Z,4.00
2023-06-17T14:54:20.817Z,4.18
2023-06-17T14:56:47.325Z,4.70
2023-06-17T14:59:14.010Z,4.30
2023-06-17T15:01:40.683Z,4.25
2023-06-17T15:04:09.511Z,4.30
2023-06-17T15:06:36.430Z,4.07
2023-06-17T15:09:27.404Z,4.22
2023-06-17T15:11:55.590Z,3.90
2023-06-17T15:14:22.571Z,4.70
2023-06-17T15:16:51.062Z,3.87
2023-06-17T15:19:18.131Z,3.90
2023-06-17T15:21:45.736Z,4.40
2023-06-17T15:24:13.105Z,4.40
2023-06-17T15:26:39.778Z,4.28
2023-06-17T15:29:07.541Z,4.67
2023-06-17T15:31:34.848Z,4.30
2023-06-17T15:34:01.747Z,4.47
2023-06-17T15:36:29.569Z,4.10
2023-06-17T15:39:00.874Z,4.40
2023-06-17T15:41:27.520Z,4.13
2023-06-17T15:43:55.445Z,4.40
2023-06-17T15:46:22.278Z,4.75
2023-06-17T15:48:49.260Z,4.18
2023-06-17T15:51:16.333Z,4.93
2023-06-17T15:53:42.832Z,5.03
2023-06-17T15:56:09.358Z,4.35
2023-06-17T15:58:36.003Z,4.13
2023-06-17T16:01:02.544Z,4.13
2023-06-17T16:03:30.788Z,4.30
2023-06-17T16:05:58.644Z,4.50
2023-06-17T16:08:28.145Z,4.70
2023-06-17T16:10:54.666Z,4.47
2023-06-17T16:13:21.258Z,4.40
2023-06-17T16:15:47.781Z,4.60
2023-06-17T16:18:14.361Z,4.70
2023-06-17T16:20:41.489Z,4.18
2023-06-17T16:23:08.396Z,4.05
2023-06-17T16:25:49.873Z,4.30
2023-06-17T16:28:21.100Z,8.32
2023-06-17T16:30:47.647Z,5.13
2023-06-17T16:33:15.197Z,3.90
2023-06-17T16:35:41.988Z,4.50
2023-06-17T16:38:08.891Z,4.75
2023-06-17T16:40:35.569Z,4.30
2023-06-17T16:43:02.241Z,4.03
2023-06-17T16:45:29.065Z,4.32
2023-06-17T16:47:56.697Z,4.30
2023-06-17T16:50:23.891Z,4.13
2023-06-17T16:52:50.760Z,4.22
2023-06-17T16:55:17.500Z,4.30
2023-06-17T16:57:44.495Z,4.22
2023-06-17T17:00:12.497Z,4.18
2023-06-17T17:02:39.482Z,4.47
2023-06-17T17:05:06.763Z,4.88
2023-06-17T17:07:33.437Z,4.50
2023-06-17T17:09:59.922Z,5.75
2023-06-17T17:12:26.543Z,4.40
2023-06-17T17:14:53.184Z,4.40
2023-06-17T17:17:19.640Z,4.70
2023-06-17T17:19:46.324Z,4.77
2023-06-17T17:22:12.933Z,4.43
2023-06-17T17:24:39.626Z,4.85
2023-06-17T17:27:08.020Z,4.68
2023-06-17T17:29:35.346Z,4.57
2023-06-17T17:32:03.148Z,4.70
2023-06-17T17:34:29.866Z,4.40
2023-06-17T17:36:56.482Z,4.70
2023-06-17T17:39:23.264Z,4.25
2023-06-17T17:41:49.876Z,4.90
2023-06-17T17:44:16.287Z,4.93
2023-06-17T17:46:42.842Z,4.40
2023-06-17T17:49:09.761Z,4.70
2023-06-17T17:51:36.504Z,4.07
2023-06-17T17:54:03.411Z,4.55
2023-06-17T17:56:30.323Z,4.60
2023-06-17T17:58:56.981Z,4.45
2023-06-17T18:01:23.602Z,4.45
2023-06-17T18:03:50.823Z,4.07
2023-06-17T18:06:17.391Z,4.75
2023-06-17T18:08:44.130Z,4.60
2023-06-17T18:11:10.815Z,4.30
2023-06-17T18:13:37.467Z,4.63
2023-06-17T18:16:04.373Z,4.55
2023-06-17T18:18:31.064Z,4.28
2023-06-17T18:20:57.505Z,4.37
2023-06-17T18:23:24.153Z,4.68
2023-06-17T18:25:50.793Z,4.22
2023-06-17T18:28:17.431Z,4.47
2023-06-17T18:30:43.868Z,4.65
2023-06-17T18:33:10.538Z,4.20
2023-06-17T18:35:37.168Z,4.47
2023-06-17T18:38:03.654Z,4.38
2023-06-17T18:40:30.305Z,3.72
2023-06-17T18:42:56.963Z,4.10
2023-06-17T18:45:23.612Z,4.40
2023-06-17T18:47:50.161Z,4.07
2023-06-17T18:50:16.645Z,4.07
2023-06-17T18:52:45.243Z,4.97
2023-06-17T18:55:12.035Z,3.70
2023-06-17T18:57:38.808Z,4.50
2023-06-17T19:00:06.121Z,4.03
2023-06-17T19:02:33.046Z,4.10
2023-06-17T19:05:06.124Z,4.13
2023-06-17T19:07:32.801Z,4.47
2023-06-17T19:10:00.369Z,6.37
2023-06-17T19:12:31.811Z,12.00
2023-06-17T19:14:58.727Z,37.40
2023-06-17T19:17:25.840Z,18.70
2023-06-17T19:19:52.611Z,7.82
2023-06-17T19:22:19.215Z,4.40
2023-06-17T19:24:45.667Z,4.13
2023-06-17T19:27:12.205Z,4.00
2023-06-17T19:29:38.687Z,4.00
2023-06-17T19:32:05.585Z,4.00
2023-06-17T19:34:32.121Z,4.10
2023-06-17T19:36:58.708Z,3.95
2023-06-17T19:39:25.351Z,4.38
2023-06-17T19:41:51.752Z,3.80
2023-06-17T19:44:18.358Z,4.95
2023-06-17T19:46:45.330Z,4.10
2023-06-17T19:49:11.982Z,4.20
2023-06-17T19:51:38.659Z,4.00
2023-06-17T19:54:05.202Z,4.45
2023-06-17T19:56:32.162Z,4.65
2023-06-17T19:58:58.841Z,4.50
2023-06-17T20:01:27.571Z,4.78
2023-06-17T20:03:54.342Z,4.25
2023-06-17T20:06:21.003Z,4.18
2023-06-17T20:08:48.260Z,4.90
2023-06-17T20:11:14.794Z,4.70
2023-06-17T20:13:41.423Z,4.78
2023-06-17T20:16:07.971Z,4.50
2023-06-17T20:18:34.817Z,4.70
2023-06-17T20:21:01.411Z,4.25
2023-06-17T20:23:30.082Z,4.77
2023-06-17T20:25:56.984Z,4.55
2023-06-17T20:28:23.415Z,4.93
2023-06-17T20:30:49.983Z,4.95
2023-06-17T20:33:16.595Z,4.45
2023-06-17T20:35:43.431Z,4.77
2023-06-17T20:38:10.014Z,4.97
2023-06-17T20:40:36.633Z,4.97
2023-06-17T20:43:03.087Z,4.90
2023-06-17T20:45:29.695Z,4.90
2023-06-17T20:47:56.278Z,5.40
2023-06-17T20:50:23.323Z,5.10
2023-06-17T20:52:49.987Z,4.53
2023-06-17T20:55:16.667Z,4.88
2023-06-17T20:57:43.399Z,4.80
2023-06-17T21:00:10.525Z,4.60
2023-06-17T21:02:37.595Z,5.10
2023-06-17T21:05:04.786Z,5.35
2023-06-17T21:07:31.496Z,4.38
2023-06-17T21:09:58.412Z,4.43
2023-06-17T21:12:25.003Z,4.50
2023-06-17T21:14:51.604Z,4.88
2023-06-17T21:17:18.452Z,4.90
2023-06-17T21:19:45.018Z,5.05
2023-06-17T21:22:11.503Z,4.95
2023-06-17T21:24:38.006Z,4.47
2023-06-17T21:27:10.256Z,5.10
2023-06-17T21:29:39.168Z,6.50
2023-06-17T21:32:07.320Z,5.72
2023-06-17T21:34:34.230Z,5.05
2023-06-17T21:37:01.413Z,5.43
2023-06-17T21:39:27.984Z,5.13
2023-06-17T21:41:54.475Z,5.47
2023-06-17T21:44:21.235Z,5.70
2023-06-17T21:46:47.689Z,5.47
2023-06-17T21:49:14.265Z,5.37
2023-06-17T21:51:40.968Z,5.32
2023-06-17T21:54:07.514Z,5.25
2023-06-17T21:56:34.181Z,5.47
2023-06-17T21:59:00.929Z,5.60
2023-06-17T22:01:27.557Z,5.80
2023-06-17T22:03:54.244Z,4.95
2023-06-17T22:06:21.110Z,4.75
2023-06-17T22:08:47.561Z,5.07
2023-06-17T22:11:14.303Z,5.25
2023-06-17T22:13:41.123Z,5.07
2023-06-17T22:16:07.994Z,5.40
2023-06-17T22:18:34.613Z,4.97
2023-06-17T22:21:01.485Z,5.40
2023-06-17T22:23:27.982Z,5.05
2023-06-17T22:25:54.911Z,4.90
2023-06-17T22:28:21.380Z,5.03
2023-06-17T22:30:47.974Z,4.93
2023-06-17T22:33:16.073Z,4.63
2023-06-17T22:35:42.850Z,4.57
2023-06-17T22:38:09.687Z,4.33
2023-06-17T22:40:36.612Z,5.00
2023-06-17T22:43:04.064Z,4.38
2023-06-17T22:45:30.700Z,4.13
2023-06-17T22:47:57.424Z,4.88
2023-06-17T22:50:24.547Z,5.13
2023-06-17T22:52:51.277Z,4.85
2023-06-17T22:55:18.069Z,5.47
2023-06-17T22:57:44.759Z,6.05
2023-06-17T23:00:12.684Z,5.63
2023-06-17T23:02:39.355Z,5.90
2023-06-17T23:05:06.109Z,5.25
2023-06-17T23:07:32.784Z,5.57
2023-06-17T23:09:59.385Z,5.38
2023-06-17T23:12:25.954Z,5.70
2023-06-17T23:14:52.537Z,4.80
2023-06-17T23:17:19.083Z,5.75
2023-06-17T23:19:45.781Z,5.72
2023-06-17T23:22:12.672Z,5.60
2023-06-17T23:24:39.201Z,5.32
2023-06-17T23:27:06.295Z,5.77
2023-06-17T23:29:33.811Z,5.47
2023-06-17T23:32:00.489Z,5.65
2023-06-17T23:34:27.131Z,5.22
2023-06-17T23:36:54.048Z,4.85
2023-06-17T23:39:20.688Z,4.63
2023-06-17T23:41:47.151Z,4.68
2023-06-17T23:44:13.645Z,4.82
2023-06-17T23:46:40.308Z,5.53
2023-06-17T23:49:06.908Z,4.63
2023-06-17T23:51:33.621Z,5.33
2023-06-17T23:54:01.381Z,5.20
2023-06-17T23:56:28.203Z,5.45
2023-06-17T23:58:54.697Z,5.70
